Smyrna, South Carolina
Current Conditions -  °F | °C
As of 2:15 AM on Friday 31 Oct 2014 (Local Time) from KEHO Reporting Station
Clear Clear  
Wind Chill: 37°   Ceiling: Unl
Heat Index: 40°   Visibility: 10mi
Dew Point: 38°   Wind: 5mph
Humidity: 92%   Direction: 20°NNE
Pressure: 29.97"   Gusts: NA
Location:  35.04°N, 81.41°W
Report Text: KEHO 310615Z AUTO 02004KT 10SM CLR 05/04 A2997 RMK AO2 T00470035
Loading
Personal Weather Stations






























Interactive Weather Map
Tropical Storm Tracking
New forecast layout! Learn more

10-Day Weather Forecast

Advertisements
Track Severe Weather on mobile